Weather at Mount Beauty Airport

Public forecast

Using degrees Celsius for public forecast. Weather courtesy of forecast.io.

Closest aviation weather report (METAR) to Mount Beauty Airport

Closest report is Albury Airport, 41.1 nm (76.2 km) NNW. Retrieved 2020/10/27 05:00 UTC (7 minutes ago):

YMAY 270500Z AUTO 16004KT 120V210 9999 // BKN067 BKN078 20/08 Q1017

Closest aviation forecast (TAF) to Mount Beauty Airport

Closest forecast is Wangaratta Airport, 45.7 nm (84.6 km) WNW. Retrieved 2020-10-27 02:33 UTC (3 hours ago):

TAF YWGT 270111Z 2702/2714 13008KT CAVOK